MiSS Karli — WDF5923 — position and weather

sailwx.info

Track history (hours):
 
Tides and Currents Weather Stations Pressure Air Temp Water Temp Dewpoint Dewpoint Depression Visibility Wind Speed Wind Dir Waves Ship Positions

MiSS Karli

Owner: Crosby Marine Transportation LLC, Golden Meadow, LA. More information available from US FCC via Universal Licensing System and Coast Guard Vessel Documentation Center.

Last reported at 2018-Feb-24 15:51 UTC. Time now 2018-Feb-24 19:44 UTC.
Position N 29°38' W 094°18'.

Length 20 m; draft 8.5 m.

Type: Towing. MMSI: 367468730.

Date/timePositionNaut miles runAvg speedWind from/ knotsBaromVisibWave heightAir tempDewpointWater temp
2018-Feb-24 15:51N 29°38' W 094°18'0 0.6
2018-Feb-24 15:29N 29°38' W 094°18'1 2.9
2018-Feb-24 14:58N 29°39' W 094°16'3 6.5
2018-Feb-24 14:29N 29°40' W 094°13'3 6.2
2018-Feb-24 14:01N 29°41' W 094°10'3 6.3
2018-Feb-24 13:31N 29°43' W 094°07'3 6.2
2018-Feb-24 13:01N 29°45' W 094°04'3 6.1
2018-Feb-24 12:30N 29°47' W 094°01'3 5.5
2018-Feb-24 12:00N 29°49' W 093°59'3 5.8
2018-Feb-24 11:31N 29°51' W 093°57'4 8.9
2018-Feb-24 11:00N 29°55' W 093°53'4 8.1
2018-Feb-24 10:30N 29°58' W 093°51'3 6.7
2018-Feb-24 10:00N 29°59' W 093°47'4 7.2
2018-Feb-24 09:30N 30°02' W 093°44'2 4.8
2018-Feb-24 09:01N 30°03' W 093°42'1 2.0
2018-Feb-24 08:28N 30°04' W 093°41'3 6.1
2018-Feb-24 07:57N 30°04' W 093°37'2 5.2
2018-Feb-24 07:30N 30°04' W 093°35'3 5.7
2018-Feb-24 06:58N 30°04' W 093°31'3 5.8
2018-Feb-24 06:31N 30°04' W 093°28'3 5.8
2018-Feb-24 06:00N 30°04' W 093°25'3 6.0
2018-Feb-24 05:31N 30°04' W 093°21'2 3.1
2018-Feb-24 05:00N 30°05' W 093°20'3 5.4
2018-Feb-24 04:31N 30°07' W 093°20'3 5.7
2018-Feb-24 04:00N 30°10' W 093°19'2 4.6
2018-Feb-24 03:31N 30°12' W 093°18'1 1.9
2018-Feb-24 03:00N 30°13' W 093°19'1 1.2
2018-Feb-24 02:30N 30°12' W 093°19'0 0.6
2018-Feb-24 01:58N 30°12' W 093°19'0 0.0
2018-Feb-24 01:25N 30°12' W 093°19'0 0.0
2018-Feb-24 00:58N 30°12' W 093°19'0 0.0
2018-Feb-23 04:26N 30°12' W 093°19'0 0.7
2018-Feb-23 04:00N 30°12' W 093°19'1 1.1
2018-Feb-23 03:30N 30°12' W 093°19'1 2.1
2018-Feb-23 03:00N 30°12' W 093°18'3 5.9
2018-Feb-23 02:30N 30°09' W 093°20'3 5.9
2018-Feb-23 02:00N 30°06' W 093°20'2 4.6
2018-Feb-23 01:30N 30°04' W 093°21'2 4.9
2018-Feb-23 01:00N 30°04' W 093°23'3 5.2
2018-Feb-23 00:30N 30°04' W 093°26'3 5.2
2018-Feb-23 00:00N 30°04' W 093°29'3 5.3
2018-Feb-22 23:28N 30°04' W 093°33'3 5.3
2018-Feb-22 22:58N 30°04' W 093°36'3 5.5
2018-Feb-22 22:30N 30°04' W 093°39'3 5.6
2018-Feb-22 21:58N 30°03' W 093°42'2 5.1
2018-Feb-22 21:30N 30°02' W 093°44'3 6.1
2018-Feb-22 21:00N 29°60' W 093°47'3 5.8
2018-Feb-22 20:31N 29°59' W 093°50'2 3.5
2018-Feb-22 20:00N 29°59' W 093°52'2 5.0
2018-Feb-22 19:30N 29°59' W 093°54'0 0.0
2018-Feb-22 19:00N 29°59' W 093°54'0 0.0
2018-Feb-22 18:31N 29°59' W 093°54'0 0.0
2018-Feb-22 18:01N 29°59' W 093°54'1 1.5
2018-Feb-22 17:30N 29°59' W 093°55'1 2.4
2018-Feb-22 17:00N 29°60' W 093°57'0 0.0
2018-Feb-22 16:31N 29°60' W 093°57'0 0.0
2018-Feb-22 15:58N 29°60' W 093°57'0 0.0
2018-Feb-22 15:28N 29°60' W 093°57'0 0.0
2018-Feb-22 14:58N 29°60' W 093°57'0 0.0
2018-Feb-22 14:26N 29°60' W 093°57'0 0.0
2018-Feb-22 13:58N 29°60' W 093°57'0 0.0
2018-Feb-22 13:28N 29°60' W 093°57'0 0.0
2018-Feb-22 12:58N 29°60' W 093°57'0 0.0
2018-Feb-22 12:28N 29°60' W 093°57'0 0.0
2018-Feb-22 11:58N 29°60' W 093°57'0 0.0
2018-Feb-22 11:28N 29°60' W 093°57'0 0.0
2018-Feb-22 10:58N 29°60' W 093°57'0 0.0
2018-Feb-22 10:28N 29°60' W 093°57'0 0.0
2018-Feb-22 09:58N 29°60' W 093°57'0 0.0
2018-Feb-22 09:28N 29°60' W 093°57'0 0.0
2018-Feb-22 08:58N 29°60' W 093°57'0 0.0
2018-Feb-22 08:29N 29°60' W 093°57'0 0.0
2018-Feb-22 07:58N 29°60' W 093°57'0 0.0
2018-Feb-22 07:28N 29°60' W 093°57'0 0.0
2018-Feb-22 06:58N 29°60' W 093°57'0 0.0
2018-Feb-22 06:28N 29°60' W 093°57'0 0.0
2018-Feb-22 05:58N 29°60' W 093°57'2 5.0
2018-Feb-22 05:30N 29°59' W 093°54'3 5.4
2018-Feb-22 05:00N 29°58' W 093°51'0 0.6
2018-Feb-22 04:28N 29°58' W 093°52'0 0.0
2018-Feb-22 03:58N 29°58' W 093°52'0 0.0
2018-Feb-22 03:28N 29°58' W 093°52'0 0.0
2018-Feb-22 02:58N 29°58' W 093°52'0 0.0
2018-Feb-22 02:28N 29°58' W 093°52'0 0.0
2018-Feb-22 01:58N 29°58' W 093°52'0 0.0
2018-Feb-22 01:25N 29°58' W 093°52'0 0.0
2018-Feb-22 00:55N 29°58' W 093°52'0 0.0
2018-Feb-22 00:28N 29°58' W 093°52'0 0.0
2018-Feb-21 23:58N 29°58' W 093°52'0 0.0
2018-Feb-21 23:28N 29°58' W 093°52'0 0.0
2018-Feb-21 22:58N 29°58' W 093°52'0 0.0
2018-Feb-21 22:28N 29°58' W 093°52'0 0.0
2018-Feb-21 21:58N 29°58' W 093°52'0 0.0
2018-Feb-21 21:25N 29°58' W 093°52'0 0.0
2018-Feb-21 20:58N 29°58' W 093°52'0 0.0
2018-Feb-21 20:28N 29°58' W 093°52'0 0.0
2018-Feb-21 19:58N 29°58' W 093°52'0 0.0
2018-Feb-21 19:25N 29°58' W 093°52'0 0.0
2018-Feb-21 18:58N 29°58' W 093°52'0 0.0
2018-Feb-21 18:28N 29°58' W 093°52'1 1.6
2018-Feb-21 18:00N 29°57' W 093°52'1 1.2
2018-Feb-21 17:29N 29°58' W 093°52'0 0.3
2018-Feb-21 17:00N 29°57' W 093°52'0 0.3
2018-Feb-21 16:30N 29°58' W 093°52'0 0.0
2018-Feb-21 16:00N 29°58' W 093°52'0 0.0
2018-Feb-21 15:30N 29°58' W 093°52'0 0.0
2018-Feb-21 15:00N 29°58' W 093°52'0 0.7
2018-Feb-21 14:30N 29°57' W 093°52'0 0.5
2018-Feb-21 14:00N 29°57' W 093°52'1 1.9
2018-Feb-21 13:29N 29°58' W 093°52'0 0.0
2018-Feb-21 12:59N 29°58' W 093°52'0 0.0
2018-Feb-21 12:29N 29°58' W 093°52'0 0.0
2018-Feb-21 11:59N 29°58' W 093°52'0 0.0
2018-Feb-21 11:29N 29°58' W 093°52'0 0.0
2018-Feb-21 10:56N 29°58' W 093°52'0 0.0
2018-Feb-21 10:29N 29°58' W 093°52'0 0.0
2018-Feb-21 09:59N 29°58' W 093°52'0 0.0
2018-Feb-21 09:29N 29°58' W 093°52'0 0.0
2018-Feb-21 08:59N 29°58' W 093°52'0 0.0
2018-Feb-21 08:29N 29°58' W 093°52'0 0.1
2018-Feb-21 07:59N 29°58' W 093°52'0 0.0
2018-Feb-21 07:26N 29°58' W 093°52'0 0.0
2018-Feb-21 06:59N 29°58' W 093°52'0 0.0
2018-Feb-21 06:29N 29°58' W 093°52'0 0.0
2018-Feb-21 05:59N 29°58' W 093°52'0 0.0
2018-Feb-21 05:29N 29°58' W 093°52'0 0.0
2018-Feb-21 04:59N 29°58' W 093°52'0 0.0
2018-Feb-21 04:17N 29°58' W 093°52'0 0.0
2018-Feb-21 03:59N 29°58' W 093°52'0 0.0
2018-Feb-21 03:29N 29°58' W 093°52'0 0.0
2018-Feb-21 02:59N 29°58' W 093°52'0 0.0
2018-Feb-21 02:29N 29°58' W 093°52'0 0.0
2018-Feb-21 01:56N 29°58' W 093°52'0 0.0
2018-Feb-21 01:29N 29°58' W 093°52'1 2.4
2018-Feb-21 01:00N 29°57' W 093°52'1 1.4
2018-Feb-21 00:29N 29°58' W 093°52'0 0.1
2018-Feb-20 23:59N 29°58' W 093°52'0 0.1
2018-Feb-20 23:26N 29°58' W 093°52'0 0.0
2018-Feb-20 22:59N 29°58' W 093°52'0 0.0
2018-Feb-20 22:30N 29°58' W 093°52'0 0.0
2018-Feb-20 22:00N 29°58' W 093°52'0 0.0
2018-Feb-20 21:29N 29°58' W 093°52'0 0.0
2018-Feb-20 21:00N 29°58' W 093°52'0 0.0
2018-Feb-20 20:30N 29°58' W 093°52'0 0.0
2018-Feb-20 19:59N 29°58' W 093°52'0 0.0
2018-Feb-20 19:30N 29°58' W 093°52'0 0.0
2018-Feb-20 18:59N 29°58' W 093°52'0 0.0
2018-Feb-20 18:29N 29°58' W 093°52'0 0.0
2018-Feb-20 17:59N 29°58' W 093°52'0 0.0
2018-Feb-20 17:30N 29°58' W 093°52'0 0.0
2018-Feb-20 16:59N 29°58' W 093°52'0 0.0
2018-Feb-20 16:29N 29°58' W 093°52'0 0.2
2018-Feb-20 16:00N 29°58' W 093°52'1 2.1
2018-Feb-20 15:30N 29°58' W 093°51'3 6.7
2018-Feb-20 15:00N 29°59' W 093°47'3 5.9
2018-Feb-20 14:30N 30°01' W 093°45'2 4.2
2018-Feb-20 14:00N 30°03' W 093°43'0 0.9
2018-Feb-20 13:30N 30°03' W 093°43'3 6.2
2018-Feb-20 13:00N 30°04' W 093°39'3 6.3
2018-Feb-20 12:29N 30°04' W 093°36'3 6.0
2018-Feb-20 11:59N 30°04' W 093°32'3 6.1
2018-Feb-20 11:30N 30°04' W 093°29'3 6.1
2018-Feb-20 11:00N 30°04' W 093°25'3 5.9
2018-Feb-20 10:30N 30°04' W 093°22'2 3.3
2018-Feb-20 10:00N 30°05' W 093°20'2 3.7
2018-Feb-20 09:30N 30°06' W 093°20'3 6.4
2018-Feb-20 09:00N 30°10' W 093°19'3 6.1
2018-Feb-20 08:30N 30°12' W 093°17'1 2.0
2018-Feb-20 07:50N 30°13' W 093°19'0 0.9
2018-Feb-20 07:30N 30°12' W 093°19'0 0.6
2018-Feb-20 07:00N 30°12' W 093°19'0 0.1
2018-Feb-20 06:29N 30°12' W 093°19'0 0.0
2018-Feb-20 05:59N 30°12' W 093°19'0 0.0
2018-Feb-20 05:29N 30°12' W 093°19'0 0.0
2018-Feb-20 04:59N 30°12' W 093°19'0 0.0
2018-Feb-20 04:26N 30°12' W 093°19'0 0.0
2018-Feb-20 03:53N 30°12' W 093°19'0 0.0
2018-Feb-20 03:30N 30°12' W 093°19'0 0.0
2018-Feb-20 02:59N 30°12' W 093°19'0 0.0
2018-Feb-20 02:26N 30°12' W 093°19'0 0.0
2018-Feb-20 01:59N 30°12' W 093°19'0 0.0
2018-Feb-20 01:29N 30°12' W 093°19'0 0.0
2018-Feb-20 00:59N 30°12' W 093°19'0 0.0
2018-Feb-20 00:29N 30°12' W 093°19'0 0.0
2018-Feb-19 23:59N 30°12' W 093°19'0 0.0
2018-Feb-19 23:29N 30°12' W 093°19'0 0.0
2018-Feb-19 22:59N 30°12' W 093°19'0 0.0
2018-Feb-19 22:29N 30°12' W 093°19'0 0.0
2018-Feb-19 21:59N 30°12' W 093°19'0 0.0
2018-Feb-19 21:17N 30°12' W 093°19'0 0.0
2018-Feb-19 20:59N 30°12' W 093°19'0 0.0
2018-Feb-19 20:29N 30°12' W 093°19'0 0.0
2018-Feb-19 19:59N 30°12' W 093°19'0 0.0
2018-Feb-19 19:29N 30°12' W 093°19'0 0.1
2018-Feb-19 19:00N 30°12' W 093°19'1 1.5
2018-Feb-19 18:30N 30°13' W 093°19'1 2.2
2018-Feb-19 18:00N 30°12' W 093°18'2 3.6
2018-Feb-19 17:30N 30°11' W 093°19'3 5.3
2018-Feb-19 17:00N 30°08' W 093°20'3 5.6
2018-Feb-19 16:30N 30°05' W 093°20'2 4.2
2018-Feb-19 16:00N 30°04' W 093°21'2 3.7
2018-Feb-19 15:30N 30°04' W 093°23'3 5.3
2018-Feb-19 15:00N 30°04' W 093°26'3 5.1
2018-Feb-19 14:26N 30°04' W 093°30'2 5.5
2018-Feb-19 14:00N 30°04' W 093°32'3 5.6
2018-Feb-19 13:30N 30°04' W 093°35'3 6.1
2018-Feb-19 12:59N 30°04' W 093°39'3 6.3
2018-Feb-19 12:28N 30°03' W 093°43'3 5.8
2018-Feb-19 12:00N 30°01' W 093°45'3 6.2
2018-Feb-19 11:30N 29°59' W 093°48'3 5.9
2018-Feb-19 11:00N 29°58' W 093°51'1 2.3
2018-Feb-19 10:30N 29°58' W 093°52'0 0.3
2018-Feb-19 09:59N 29°58' W 093°52'0 0.0
2018-Feb-19 09:29N 29°58' W 093°52'0 0.0
2018-Feb-19 08:59N 29°58' W 093°52'0 0.0
2018-Feb-19 08:29N 29°58' W 093°52'0 0.0
2018-Feb-19 07:59N 29°58' W 093°52'0 0.0
2018-Feb-19 07:29N 29°58' W 093°52'0 0.0
2018-Feb-19 06:53N 29°58' W 093°52'0 0.0
2018-Feb-19 06:29N 29°58' W 093°52'0 0.0
2018-Feb-19 05:59N 29°58' W 093°52'0 0.0
2018-Feb-19 05:29N 29°58' W 093°52'0 0.0
2018-Feb-19 04:59N 29°58' W 093°52'0 0.0
2018-Feb-19 04:29N 29°58' W 093°52'0 0.0
2018-Feb-19 03:59N 29°58' W 093°52'0 0.0
2018-Feb-19 03:29N 29°58' W 093°52'0 0.0
2018-Feb-19 02:59N 29°58' W 093°52'0 0.0
2018-Feb-19 02:26N 29°58' W 093°52'0 0.0
2018-Feb-19 01:59N 29°58' W 093°52'0 0.0
2018-Feb-19 01:30N 29°58' W 093°52'0 0.1
2018-Feb-19 01:00N 29°58' W 093°52'2 3.3
2018-Feb-19 00:30N 29°56' W 093°52'3 6.5
2018-Feb-19 00:00N 29°54' W 093°55'3 6.3
2018-Feb-18 23:30N 29°51' W 093°57'2 4.8
2018-Feb-18 23:00N 29°49' W 093°59'2 4.5
2018-Feb-18 22:30N 29°48' W 094°00'2 4.0
2018-Feb-18 22:00N 29°46' W 094°02'2 4.3
2018-Feb-18 21:30N 29°45' W 094°04'2 4.9
2018-Feb-18 21:00N 29°44' W 094°06'3 5.2
2018-Feb-18 20:30N 29°42' W 094°09'3 5.1
2018-Feb-18 20:00N 29°41' W 094°11'3 5.0
2018-Feb-18 19:30N 29°40' W 094°14'2 4.4
2018-Feb-18 19:00N 29°39' W 094°16'1 2.7
2018-Feb-18 18:30N 29°38' W 094°18'1 2.9
2018-Feb-18 18:00N 29°38' W 094°19'0 0.3
2018-Feb-18 17:30N 29°38' W 094°19'0 0.5
2018-Feb-18 17:00N 29°37' W 094°20'0 0.0
2018-Feb-18 16:30N 29°37' W 094°20'1 2.9
2018-Feb-18 16:00N 29°37' W 094°21'2 3.3
2018-Feb-18 15:30N 29°36' W 094°23'2 3.3
2018-Feb-18 14:50N 29°35' W 094°25'1 3.6
2018-Feb-18 14:30N 29°34' W 094°26'4 3.8
2018-Feb-18 13:25N 29°31' W 094°29'2 0.4
2018-Feb-18 07:34N 29°31' W 094°32'0 0.1
2018-Feb-18 07:29N 29°31' W 094°32'5 0.8
2018-Feb-18 00:28N 29°29' W 094°38'1 2.3
2018-Feb-17 23:50N 29°28' W 094°39'9 4.9
2018-Feb-17 21:57N 29°22' W 094°47'12 3.4
2018-Feb-17 18:27N 29°33' W 094°54'3 6.5
2018-Feb-17 18:00N 29°35' W 094°56'3 6.5
2018-Feb-17 17:30N 29°38' W 094°58'3 5.7
2018-Feb-17 17:00N 29°41' W 094°59'3 6.0
2018-Feb-17 16:30N 29°43' W 095°01'5 0.3
2018-Feb-17 00:44N 29°46' W 095°06'8 1.2
2018-Feb-16 17:58N 29°43' W 095°15'2 5.1
2018-Feb-16 17:29N 29°44' W 095°12'3 6.0
2018-Feb-16 17:00N 29°44' W 095°09'3 6.0
2018-Feb-16 16:30N 29°45' W 095°06'2 3.4
2018-Feb-16 15:51N 29°47' W 095°05'3 2.4
2018-Feb-16 14:45N 29°45' W 095°06'2 5.6
2018-Feb-16 14:27N 29°44' W 095°08'3 5.4
2018-Feb-16 13:56N 29°45' W 095°11'4 0.8
2018-Feb-16 08:18N 29°45' W 095°06'2 5.0
2018-Feb-16 07:52N 29°47' W 095°04'0 0.1
2018-Feb-16 05:02N 29°47' W 095°05'1 4.3
2018-Feb-16 04:54N 29°46' W 095°05'3 5.8
2018-Feb-16 04:27N 29°44' W 095°07'2 5.5
2018-Feb-16 04:00N 29°45' W 095°10'6 0.3
2018-Feb-15 08:32N 29°47' W 095°04'0 1.3
2018-Feb-15 08:18N 29°47' W 095°04'0 0.0
2018-Feb-15 07:59N 29°47' W 095°04'0 0.0
2018-Feb-15 07:30N 29°47' W 095°04'0 0.0
2018-Feb-15 07:00N 29°47' W 095°04'0 0.0
2018-Feb-15 06:30N 29°47' W 095°04'0 0.0
2018-Feb-15 05:58N 29°47' W 095°04'0 0.0
2018-Feb-15 05:31N 29°47' W 095°04'0 0.0
2018-Feb-15 04:58N 29°47' W 095°04'0 0.0
2018-Feb-15 04:31N 29°47' W 095°04'0 0.0
2018-Feb-15 04:00N 29°47' W 095°04'0 0.0
2018-Feb-15 02:56N 29°47' W 095°04'0 0.0
2018-Feb-15 02:21N 29°47' W 095°04'5 4.7
2018-Feb-15 01:14N 29°44' W 095°09'2 0.8
2018-Feb-14 22:20N 29°45' W 095°06'  
Track history (hours):
 
Tides and Currents Weather Stations Pressure Air Temp Water Temp Dewpoint Dewpoint Depression Visibility Wind Speed Wind Dir Waves Ship Positions

MiSS Karli

Owner: Crosby Marine Transportation LLC, Golden Meadow, LA. More information available from US FCC via Universal Licensing System and Coast Guard Vessel Documentation Center.

Last reported at 2018-Feb-24 15:51 UTC. Time now 2018-Feb-24 19:44 UTC.
Position N 29°38' W 094°18'.

Length 20 m; draft 8.5 m.

Type: Towing. MMSI: 367468730.

Date/timePositionNaut miles runAvg speedWind from/ knotsBaromVisibWave heightAir tempDewpointWater temp
2018-Feb-24 15:51N 29°38' W 094°18'0 0.6
2018-Feb-24 15:29N 29°38' W 094°18'1 2.9
2018-Feb-24 14:58N 29°39' W 094°16'3 6.5
2018-Feb-24 14:29N 29°40' W 094°13'3 6.2
2018-Feb-24 14:01N 29°41' W 094°10'3 6.3
2018-Feb-24 13:31N 29°43' W 094°07'3 6.2
2018-Feb-24 13:01N 29°45' W 094°04'3 6.1
2018-Feb-24 12:30N 29°47' W 094°01'3 5.5
2018-Feb-24 12:00N 29°49' W 093°59'3 5.8
2018-Feb-24 11:31N 29°51' W 093°57'4 8.9
2018-Feb-24 11:00N 29°55' W 093°53'4 8.1
2018-Feb-24 10:30N 29°58' W 093°51'3 6.7
2018-Feb-24 10:00N 29°59' W 093°47'4 7.2
2018-Feb-24 09:30N 30°02' W 093°44'2 4.8
2018-Feb-24 09:01N 30°03' W 093°42'1 2.0
2018-Feb-24 08:28N 30°04' W 093°41'3 6.1
2018-Feb-24 07:57N 30°04' W 093°37'2 5.2
2018-Feb-24 07:30N 30°04' W 093°35'3 5.7
2018-Feb-24 06:58N 30°04' W 093°31'3 5.8
2018-Feb-24 06:31N 30°04' W 093°28'3 5.8
2018-Feb-24 06:00N 30°04' W 093°25'3 6.0
2018-Feb-24 05:31N 30°04' W 093°21'2 3.1
2018-Feb-24 05:00N 30°05' W 093°20'3 5.4
2018-Feb-24 04:31N 30°07' W 093°20'3 5.7
2018-Feb-24 04:00N 30°10' W 093°19'2 4.6
2018-Feb-24 03:31N 30°12' W 093°18'1 1.9
2018-Feb-24 03:00N 30°13' W 093°19'1 1.2
2018-Feb-24 02:30N 30°12' W 093°19'0 0.6
2018-Feb-24 01:58N 30°12' W 093°19'0 0.0
2018-Feb-24 01:25N 30°12' W 093°19'0 0.0
2018-Feb-24 00:58N 30°12' W 093°19'0 0.0
2018-Feb-23 04:26N 30°12' W 093°19'0 0.7
2018-Feb-23 04:00N 30°12' W 093°19'1 1.1
2018-Feb-23 03:30N 30°12' W 093°19'1 2.1
2018-Feb-23 03:00N 30°12' W 093°18'3 5.9
2018-Feb-23 02:30N 30°09' W 093°20'3 5.9
2018-Feb-23 02:00N 30°06' W 093°20'2 4.6
2018-Feb-23 01:30N 30°04' W 093°21'2 4.9
2018-Feb-23 01:00N 30°04' W 093°23'3 5.2
2018-Feb-23 00:30N 30°04' W 093°26'3 5.2
2018-Feb-23 00:00N 30°04' W 093°29'3 5.3
2018-Feb-22 23:28N 30°04' W 093°33'3 5.3
2018-Feb-22 22:58N 30°04' W 093°36'3 5.5
2018-Feb-22 22:30N 30°04' W 093°39'3 5.6
2018-Feb-22 21:58N 30°03' W 093°42'2 5.1
2018-Feb-22 21:30N 30°02' W 093°44'3 6.1
2018-Feb-22 21:00N 29°60' W 093°47'3 5.8
2018-Feb-22 20:31N 29°59' W 093°50'2 3.5
2018-Feb-22 20:00N 29°59' W 093°52'2 5.0
2018-Feb-22 19:30N 29°59' W 093°54'0 0.0
2018-Feb-22 19:00N 29°59' W 093°54'0 0.0
2018-Feb-22 18:31N 29°59' W 093°54'0 0.0
2018-Feb-22 18:01N 29°59' W 093°54'1 1.5
2018-Feb-22 17:30N 29°59' W 093°55'1 2.4
2018-Feb-22 17:00N 29°60' W 093°57'0 0.0
2018-Feb-22 16:31N 29°60' W 093°57'0 0.0
2018-Feb-22 15:58N 29°60' W 093°57'0 0.0
2018-Feb-22 15:28N 29°60' W 093°57'0 0.0
2018-Feb-22 14:58N 29°60' W 093°57'0 0.0
2018-Feb-22 14:26N 29°60' W 093°57'0 0.0
2018-Feb-22 13:58N 29°60' W 093°57'0 0.0
2018-Feb-22 13:28N 29°60' W 093°57'0 0.0
2018-Feb-22 12:58N 29°60' W 093°57'0 0.0
2018-Feb-22 12:28N 29°60' W 093°57'0 0.0
2018-Feb-22 11:58N 29°60' W 093°57'0 0.0
2018-Feb-22 11:28N 29°60' W 093°57'0 0.0
2018-Feb-22 10:58N 29°60' W 093°57'0 0.0
2018-Feb-22 10:28N 29°60' W 093°57'0 0.0
2018-Feb-22 09:58N 29°60' W 093°57'0 0.0
2018-Feb-22 09:28N 29°60' W 093°57'0 0.0
2018-Feb-22 08:58N 29°60' W 093°57'0 0.0
2018-Feb-22 08:29N 29°60' W 093°57'0 0.0
2018-Feb-22 07:58N 29°60' W 093°57'0 0.0
2018-Feb-22 07:28N 29°60' W 093°57'0 0.0
2018-Feb-22 06:58N 29°60' W 093°57'0 0.0
2018-Feb-22 06:28N 29°60' W 093°57'0 0.0
2018-Feb-22 05:58N 29°60' W 093°57'2 5.0
2018-Feb-22 05:30N 29°59' W 093°54'3 5.4
2018-Feb-22 05:00N 29°58' W 093°51'0 0.6
2018-Feb-22 04:28N 29°58' W 093°52'0 0.0
2018-Feb-22 03:58N 29°58' W 093°52'0 0.0
2018-Feb-22 03:28N 29°58' W 093°52'0 0.0
2018-Feb-22 02:58N 29°58' W 093°52'0 0.0
2018-Feb-22 02:28N 29°58' W 093°52'0 0.0
2018-Feb-22 01:58N 29°58' W 093°52'0 0.0
2018-Feb-22 01:25N 29°58' W 093°52'0 0.0
2018-Feb-22 00:55N 29°58' W 093°52'0 0.0
2018-Feb-22 00:28N 29°58' W 093°52'0 0.0
2018-Feb-21 23:58N 29°58' W 093°52'0 0.0
2018-Feb-21 23:28N 29°58' W 093°52'0 0.0
2018-Feb-21 22:58N 29°58' W 093°52'0 0.0
2018-Feb-21 22:28N 29°58' W 093°52'0 0.0
2018-Feb-21 21:58N 29°58' W 093°52'0 0.0
2018-Feb-21 21:25N 29°58' W 093°52'0 0.0
2018-Feb-21 20:58N 29°58' W 093°52'0 0.0
2018-Feb-21 20:28N 29°58' W 093°52'0 0.0
2018-Feb-21 19:58N 29°58' W 093°52'0 0.0
2018-Feb-21 19:25N 29°58' W 093°52'0 0.0
2018-Feb-21 18:58N 29°58' W 093°52'0 0.0
2018-Feb-21 18:28N 29°58' W 093°52'1 1.6
2018-Feb-21 18:00N 29°57' W 093°52'1 1.2
2018-Feb-21 17:29N 29°58' W 093°52'0 0.3
2018-Feb-21 17:00N 29°57' W 093°52'0 0.3
2018-Feb-21 16:30N 29°58' W 093°52'0 0.0
2018-Feb-21 16:00N 29°58' W 093°52'0 0.0
2018-Feb-21 15:30N 29°58' W 093°52'0 0.0
2018-Feb-21 15:00N 29°58' W 093°52'0 0.7
2018-Feb-21 14:30N 29°57' W 093°52'0 0.5
2018-Feb-21 14:00N 29°57' W 093°52'1 1.9
2018-Feb-21 13:29N 29°58' W 093°52'0 0.0
2018-Feb-21 12:59N 29°58' W 093°52'0 0.0
2018-Feb-21 12:29N 29°58' W 093°52'0 0.0
2018-Feb-21 11:59N 29°58' W 093°52'0 0.0
2018-Feb-21 11:29N 29°58' W 093°52'0 0.0
2018-Feb-21 10:56N 29°58' W 093°52'0 0.0
2018-Feb-21 10:29N 29°58' W 093°52'0 0.0
2018-Feb-21 09:59N 29°58' W 093°52'0 0.0
2018-Feb-21 09:29N 29°58' W 093°52'0 0.0
2018-Feb-21 08:59N 29°58' W 093°52'0 0.0
2018-Feb-21 08:29N 29°58' W 093°52'0 0.1
2018-Feb-21 07:59N 29°58' W 093°52'0 0.0
2018-Feb-21 07:26N 29°58' W 093°52'0 0.0
2018-Feb-21 06:59N 29°58' W 093°52'0 0.0
2018-Feb-21 06:29N 29°58' W 093°52'0 0.0
2018-Feb-21 05:59N 29°58' W 093°52'0 0.0
2018-Feb-21 05:29N 29°58' W 093°52'0 0.0
2018-Feb-21 04:59N 29°58' W 093°52'0 0.0
2018-Feb-21 04:17N 29°58' W 093°52'0 0.0
2018-Feb-21 03:59N 29°58' W 093°52'0 0.0
2018-Feb-21 03:29N 29°58' W 093°52'0 0.0
2018-Feb-21 02:59N 29°58' W 093°52'0 0.0
2018-Feb-21 02:29N 29°58' W 093°52'0 0.0
2018-Feb-21 01:56N 29°58' W 093°52'0 0.0
2018-Feb-21 01:29N 29°58' W 093°52'1 2.4
2018-Feb-21 01:00N 29°57' W 093°52'1 1.4
2018-Feb-21 00:29N 29°58' W 093°52'0 0.1
2018-Feb-20 23:59N 29°58' W 093°52'0 0.1
2018-Feb-20 23:26N 29°58' W 093°52'0 0.0
2018-Feb-20 22:59N 29°58' W 093°52'0 0.0
2018-Feb-20 22:30N 29°58' W 093°52'0 0.0
2018-Feb-20 22:00N 29°58' W 093°52'0 0.0
2018-Feb-20 21:29N 29°58' W 093°52'0 0.0
2018-Feb-20 21:00N 29°58' W 093°52'0 0.0
2018-Feb-20 20:30N 29°58' W 093°52'0 0.0
2018-Feb-20 19:59N 29°58' W 093°52'0 0.0
2018-Feb-20 19:30N 29°58' W 093°52'0 0.0
2018-Feb-20 18:59N 29°58' W 093°52'0 0.0
2018-Feb-20 18:29N 29°58' W 093°52'0 0.0
2018-Feb-20 17:59N 29°58' W 093°52'0 0.0
2018-Feb-20 17:30N 29°58' W 093°52'0 0.0
2018-Feb-20 16:59N 29°58' W 093°52'0 0.0
2018-Feb-20 16:29N 29°58' W 093°52'0 0.2
2018-Feb-20 16:00N 29°58' W 093°52'1 2.1
2018-Feb-20 15:30N 29°58' W 093°51'3 6.7
2018-Feb-20 15:00N 29°59' W 093°47'3 5.9
2018-Feb-20 14:30N 30°01' W 093°45'2 4.2
2018-Feb-20 14:00N 30°03' W 093°43'0 0.9
2018-Feb-20 13:30N 30°03' W 093°43'3 6.2
2018-Feb-20 13:00N 30°04' W 093°39'3 6.3
2018-Feb-20 12:29N 30°04' W 093°36'3 6.0
2018-Feb-20 11:59N 30°04' W 093°32'3 6.1
2018-Feb-20 11:30N 30°04' W 093°29'3 6.1
2018-Feb-20 11:00N 30°04' W 093°25'3 5.9
2018-Feb-20 10:30N 30°04' W 093°22'2 3.3
2018-Feb-20 10:00N 30°05' W 093°20'2 3.7
2018-Feb-20 09:30N 30°06' W 093°20'3 6.4
2018-Feb-20 09:00N 30°10' W 093°19'3 6.1
2018-Feb-20 08:30N 30°12' W 093°17'1 2.0
2018-Feb-20 07:50N 30°13' W 093°19'0 0.9
2018-Feb-20 07:30N 30°12' W 093°19'0 0.6
2018-Feb-20 07:00N 30°12' W 093°19'0 0.1
2018-Feb-20 06:29N 30°12' W 093°19'0 0.0
2018-Feb-20 05:59N 30°12' W 093°19'0 0.0
2018-Feb-20 05:29N 30°12' W 093°19'0 0.0
2018-Feb-20 04:59N 30°12' W 093°19'0 0.0
2018-Feb-20 04:26N 30°12' W 093°19'0 0.0
2018-Feb-20 03:53N 30°12' W 093°19'0 0.0
2018-Feb-20 03:30N 30°12' W 093°19'0 0.0
2018-Feb-20 02:59N 30°12' W 093°19'0 0.0
2018-Feb-20 02:26N 30°12' W 093°19'0 0.0
2018-Feb-20 01:59N 30°12' W 093°19'0 0.0
2018-Feb-20 01:29N 30°12' W 093°19'0 0.0
2018-Feb-20 00:59N 30°12' W 093°19'0 0.0
2018-Feb-20 00:29N 30°12' W 093°19'0 0.0
2018-Feb-19 23:59N 30°12' W 093°19'0 0.0
2018-Feb-19 23:29N 30°12' W 093°19'0 0.0
2018-Feb-19 22:59N 30°12' W 093°19'0 0.0
2018-Feb-19 22:29N 30°12' W 093°19'0 0.0
2018-Feb-19 21:59N 30°12' W 093°19'0 0.0
2018-Feb-19 21:17N 30°12' W 093°19'0 0.0
2018-Feb-19 20:59N 30°12' W 093°19'0 0.0
2018-Feb-19 20:29N 30°12' W 093°19'0 0.0
2018-Feb-19 19:59N 30°12' W 093°19'0 0.0
2018-Feb-19 19:29N 30°12' W 093°19'0 0.1
2018-Feb-19 19:00N 30°12' W 093°19'1 1.5
2018-Feb-19 18:30N 30°13' W 093°19'1 2.2
2018-Feb-19 18:00N 30°12' W 093°18'2 3.6
2018-Feb-19 17:30N 30°11' W 093°19'3 5.3
2018-Feb-19 17:00N 30°08' W 093°20'3 5.6
2018-Feb-19 16:30N 30°05' W 093°20'2 4.2
2018-Feb-19 16:00N 30°04' W 093°21'2 3.7
2018-Feb-19 15:30N 30°04' W 093°23'3 5.3
2018-Feb-19 15:00N 30°04' W 093°26'3 5.1
2018-Feb-19 14:26N 30°04' W 093°30'2 5.5
2018-Feb-19 14:00N 30°04' W 093°32'3 5.6
2018-Feb-19 13:30N 30°04' W 093°35'3 6.1
2018-Feb-19 12:59N 30°04' W 093°39'3 6.3
2018-Feb-19 12:28N 30°03' W 093°43'3 5.8
2018-Feb-19 12:00N 30°01' W 093°45'3 6.2
2018-Feb-19 11:30N 29°59' W 093°48'3 5.9
2018-Feb-19 11:00N 29°58' W 093°51'1 2.3
2018-Feb-19 10:30N 29°58' W 093°52'0 0.3
2018-Feb-19 09:59N 29°58' W 093°52'0 0.0
2018-Feb-19 09:29N 29°58' W 093°52'0 0.0
2018-Feb-19 08:59N 29°58' W 093°52'0 0.0
2018-Feb-19 08:29N 29°58' W 093°52'0 0.0
2018-Feb-19 07:59N 29°58' W 093°52'0 0.0
2018-Feb-19 07:29N 29°58' W 093°52'0 0.0
2018-Feb-19 06:53N 29°58' W 093°52'0 0.0
2018-Feb-19 06:29N 29°58' W 093°52'0 0.0
2018-Feb-19 05:59N 29°58' W 093°52'0 0.0
2018-Feb-19 05:29N 29°58' W 093°52'0 0.0
2018-Feb-19 04:59N 29°58' W 093°52'0 0.0
2018-Feb-19 04:29N 29°58' W 093°52'0 0.0
2018-Feb-19 03:59N 29°58' W 093°52'0 0.0
2018-Feb-19 03:29N 29°58' W 093°52'0 0.0
2018-Feb-19 02:59N 29°58' W 093°52'0 0.0
2018-Feb-19 02:26N 29°58' W 093°52'0 0.0
2018-Feb-19 01:59N 29°58' W 093°52'0 0.0
2018-Feb-19 01:30N 29°58' W 093°52'0 0.1
2018-Feb-19 01:00N 29°58' W 093°52'2 3.3
2018-Feb-19 00:30N 29°56' W 093°52'3 6.5
2018-Feb-19 00:00N 29°54' W 093°55'3 6.3
2018-Feb-18 23:30N 29°51' W 093°57'2 4.8
2018-Feb-18 23:00N 29°49' W 093°59'2 4.5
2018-Feb-18 22:30N 29°48' W 094°00'2 4.0
2018-Feb-18 22:00N 29°46' W 094°02'2 4.3
2018-Feb-18 21:30N 29°45' W 094°04'2 4.9
2018-Feb-18 21:00N 29°44' W 094°06'3 5.2
2018-Feb-18 20:30N 29°42' W 094°09'3 5.1
2018-Feb-18 20:00N 29°41' W 094°11'3 5.0
2018-Feb-18 19:30N 29°40' W 094°14'2 4.4
2018-Feb-18 19:00N 29°39' W 094°16'1 2.7
2018-Feb-18 18:30N 29°38' W 094°18'1 2.9
2018-Feb-18 18:00N 29°38' W 094°19'0 0.3
2018-Feb-18 17:30N 29°38' W 094°19'0 0.5
2018-Feb-18 17:00N 29°37' W 094°20'0 0.0
2018-Feb-18 16:30N 29°37' W 094°20'1 2.9
2018-Feb-18 16:00N 29°37' W 094°21'2 3.3
2018-Feb-18 15:30N 29°36' W 094°23'2 3.3
2018-Feb-18 14:50N 29°35' W 094°25'1 3.6
2018-Feb-18 14:30N 29°34' W 094°26'4 3.8
2018-Feb-18 13:25N 29°31' W 094°29'2 0.4
2018-Feb-18 07:34N 29°31' W 094°32'0 0.1
2018-Feb-18 07:29N 29°31' W 094°32'5 0.8
2018-Feb-18 00:28N 29°29' W 094°38'1 2.3
2018-Feb-17 23:50N 29°28' W 094°39'9 4.9
2018-Feb-17 21:57N 29°22' W 094°47'12 3.4
2018-Feb-17 18:27N 29°33' W 094°54'3 6.5
2018-Feb-17 18:00N 29°35' W 094°56'3 6.5
2018-Feb-17 17:30N 29°38' W 094°58'3 5.7
2018-Feb-17 17:00N 29°41' W 094°59'3 6.0
2018-Feb-17 16:30N 29°43' W 095°01'5 0.3
2018-Feb-17 00:44N 29°46' W 095°06'8 1.2
2018-Feb-16 17:58N 29°43' W 095°15'2 5.1
2018-Feb-16 17:29N 29°44' W 095°12'3 6.0
2018-Feb-16 17:00N 29°44' W 095°09'3 6.0
2018-Feb-16 16:30N 29°45' W 095°06'2 3.4
2018-Feb-16 15:51N 29°47' W 095°05'3 2.4
2018-Feb-16 14:45N 29°45' W 095°06'2 5.6
2018-Feb-16 14:27N 29°44' W 095°08'3 5.4
2018-Feb-16 13:56N 29°45' W 095°11'4 0.8
2018-Feb-16 08:18N 29°45' W 095°06'2 5.0
2018-Feb-16 07:52N 29°47' W 095°04'0 0.1
2018-Feb-16 05:02N 29°47' W 095°05'1 4.3
2018-Feb-16 04:54N 29°46' W 095°05'3 5.8
2018-Feb-16 04:27N 29°44' W 095°07'2 5.5
2018-Feb-16 04:00N 29°45' W 095°10'6 0.3
2018-Feb-15 08:32N 29°47' W 095°04'0 1.3
2018-Feb-15 08:18N 29°47' W 095°04'0 0.0
2018-Feb-15 07:59N 29°47' W 095°04'0 0.0
2018-Feb-15 07:30N 29°47' W 095°04'0 0.0
2018-Feb-15 07:00N 29°47' W 095°04'0 0.0
2018-Feb-15 06:30N 29°47' W 095°04'0 0.0
2018-Feb-15 05:58N 29°47' W 095°04'0 0.0
2018-Feb-15 05:31N 29°47' W 095°04'0 0.0
2018-Feb-15 04:58N 29°47' W 095°04'0 0.0
2018-Feb-15 04:31N 29°47' W 095°04'0 0.0
2018-Feb-15 04:00N 29°47' W 095°04'0 0.0
2018-Feb-15 02:56N 29°47' W 095°04'0 0.0
2018-Feb-15 02:21N 29°47' W 095°04'5 4.7
2018-Feb-15 01:14N 29°44' W 095°09'2 0.8
2018-Feb-14 22:20N 29°45' W 095°06'  

Dump ship's entire track history